createdAt,value
2018-04-01T00:00:51.443Z,22.23
2018-04-01T00:03:22.985Z,19.53
2018-04-01T00:05:53.971Z,19.03
2018-04-01T00:08:24.245Z,19.43
2018-04-01T00:10:54.278Z,18.87
2018-04-01T00:13:24.260Z,28.37
2018-04-01T00:15:53.979Z,18.83
2018-04-01T00:18:23.860Z,21.07
2018-04-01T00:20:53.777Z,17.07
2018-04-01T00:23:24.689Z,15.67
2018-04-01T00:25:54.632Z,18.43
2018-04-01T00:28:24.547Z,21.40
2018-04-01T00:30:54.464Z,18.87
2018-04-01T00:33:24.604Z,16.07
2018-04-01T00:35:54.443Z,18.10
2018-04-01T00:38:25.267Z,16.20
2018-04-01T00:40:56.119Z,15.23
2018-04-01T00:43:26.767Z,18.03
2018-04-01T00:45:57.974Z,14.70
2018-04-01T00:48:28.585Z,18.40
2018-04-01T00:50:58.329Z,18.33
2018-04-01T00:53:28.073Z,17.33
2018-04-01T00:55:58.822Z,19.73
2018-04-01T00:58:28.927Z,17.33
2018-04-01T01:00:58.602Z,14.40
2018-04-01T01:03:29.293Z,12.90
2018-04-01T01:05:59.425Z,11.03
2018-04-01T01:08:29.547Z,13.80
2018-04-01T01:10:59.497Z,13.80
2018-04-01T01:13:29.261Z,13.87
2018-04-01T01:15:59.265Z,15.40
2018-04-01T01:18:29.112Z,11.00
2018-04-01T01:21:00.085Z,9.20
2018-04-01T01:23:31.052Z,12.10
2018-04-01T01:26:01.949Z,11.60
2018-04-01T01:28:32.636Z,9.73
2018-04-01T01:31:02.760Z,9.53
2018-04-01T01:33:33.809Z,7.57
2018-04-01T01:36:03.950Z,6.73
2018-04-01T01:38:33.937Z,8.57
2018-04-01T01:41:04.570Z,8.80
2018-04-01T01:43:34.585Z,6.90
2018-04-01T01:46:04.751Z,7.47
2018-04-01T01:48:34.513Z,7.60
2018-04-01T01:51:04.682Z,7.70
2018-04-01T01:53:34.767Z,7.30
2018-04-01T01:56:05.193Z,7.47
2018-04-01T01:58:35.163Z,6.47
2018-04-01T02:01:06.186Z,5.60
2018-04-01T02:03:37.205Z,6.73
2018-04-01T02:06:07.239Z,9.27
2018-04-01T02:08:38.057Z,7.77
2018-04-01T02:11:08.636Z,9.97
2018-04-01T02:13:38.608Z,14.90
2018-04-01T02:16:09.606Z,8.27
2018-04-01T02:18:39.598Z,9.83
2018-04-01T02:21:10.775Z,10.97
2018-04-01T02:23:42.183Z,10.40
2018-04-01T02:26:12.156Z,9.97
2018-04-01T02:28:43.384Z,9.13
2018-04-01T02:31:13.522Z,10.13
2018-04-01T02:33:43.449Z,9.80
2018-04-01T02:36:13.406Z,9.47
2018-04-01T02:38:43.077Z,9.37
2018-04-01T02:41:13.208Z,7.47
2018-04-01T02:43:42.851Z,5.80
2018-04-01T02:46:12.944Z,6.97
2018-04-01T02:48:43.003Z,6.13
2018-04-01T02:51:13.208Z,9.90
2018-04-01T02:53:42.918Z,9.50
2018-04-01T02:56:12.954Z,7.97
2018-04-01T02:58:42.612Z,8.33
2018-04-01T03:01:12.601Z,8.40
2018-04-01T03:03:42.563Z,7.43
2018-04-01T03:06:12.640Z,7.80
2018-04-01T03:08:42.921Z,6.47
2018-04-01T03:11:13.084Z,9.10
2018-04-01T03:13:42.740Z,6.90
2018-04-01T03:16:13.416Z,5.93
2018-04-01T03:18:43.447Z,7.97
2018-04-01T03:21:14.009Z,7.97
2018-04-01T03:23:44.808Z,6.00
2018-04-01T03:26:14.553Z,7.43
2018-04-01T03:28:44.575Z,9.40
2018-04-01T03:31:14.390Z,5.90
2018-04-01T03:33:44.198Z,5.77
2018-04-01T03:36:14.123Z,4.97
2018-04-01T03:38:43.822Z,7.43
2018-04-01T03:41:13.590Z,6.43
2018-04-01T03:43:43.362Z,9.13
2018-04-01T03:46:13.426Z,8.20
2018-04-01T03:48:43.632Z,7.43
2018-04-01T03:51:14.901Z,7.50
2018-04-01T03:53:45.516Z,9.23
2018-04-01T03:56:24.375Z,7.30
2018-04-01T03:58:55.122Z,6.23
2018-04-01T04:01:25.339Z,7.00
2018-04-01T04:03:56.651Z,7.03
2018-04-01T04:06:26.580Z,6.63
2018-04-01T04:08:56.799Z,9.40
2018-04-01T04:11:27.056Z,7.33
2018-04-01T04:13:58.108Z,10.23
2018-04-01T04:16:29.353Z,9.17
2018-04-01T04:18:59.453Z,11.37
2018-04-01T04:21:30.059Z,11.23
2018-04-01T04:24:00.518Z,9.50
2018-04-01T04:26:30.223Z,11.03
2018-04-01T04:29:00.453Z,10.60
2018-04-01T04:31:30.551Z,10.43
2018-04-01T04:34:00.758Z,10.60
2018-04-01T04:36:30.659Z,13.07
2018-04-01T04:39:00.645Z,13.37
2018-04-01T04:41:30.506Z,11.63
2018-04-01T04:44:00.665Z,17.47
2018-04-01T04:46:30.662Z,13.87
2018-04-01T04:49:00.962Z,15.00
2018-04-01T04:51:30.860Z,16.03
2018-04-01T04:54:00.923Z,14.47
2018-04-01T04:56:31.697Z,15.53
2018-04-01T04:59:01.553Z,15.03
2018-04-01T05:01:32.372Z,13.97
2018-04-01T05:04:02.669Z,18.80
2018-04-01T05:06:33.040Z,18.13
2018-04-01T05:09:03.975Z,16.07
2018-04-01T05:11:34.022Z,16.00
2018-04-01T05:14:03.922Z,16.70
2018-04-01T05:16:33.786Z,21.40
2018-04-01T05:19:03.855Z,20.60
2018-04-01T05:21:34.103Z,24.43
2018-04-01T05:24:05.569Z,26.90
2018-04-01T05:26:35.422Z,29.90
2018-04-01T05:29:05.892Z,33.20
2018-04-01T05:31:36.088Z,31.43
2018-04-01T05:34:41.731Z,26.90
2018-04-01T05:37:12.204Z,24.23
2018-04-01T05:39:43.392Z,23.30
2018-04-01T05:42:13.398Z,23.47
2018-04-01T05:44:43.037Z,27.60
2018-04-01T05:47:13.142Z,28.40
2018-04-01T05:49:42.745Z,30.43
2018-04-01T05:52:12.854Z,29.00
2018-04-01T05:54:43.512Z,28.13
2018-04-01T05:57:13.457Z,23.13
2018-04-01T05:59:43.116Z,21.63
2018-04-01T06:02:13.283Z,23.97
2018-04-01T06:04:43.760Z,23.63
2018-04-01T06:07:14.116Z,22.83
2018-04-01T06:09:43.684Z,21.40
2018-04-01T06:12:14.049Z,21.63
2018-04-01T06:14:43.580Z,22.23
2018-04-01T06:17:14.614Z,23.70
2018-04-01T06:19:44.683Z,23.43
2018-04-01T06:22:14.735Z,24.67
2018-04-01T06:24:44.630Z,24.47
2018-04-01T06:27:15.569Z,25.40
2018-04-01T06:29:45.333Z,26.97
2018-04-01T06:32:15.390Z,23.63
2018-04-01T06:34:45.185Z,27.03
2018-04-01T06:37:15.038Z,27.53
2018-04-01T06:39:45.775Z,26.50
2018-04-01T06:42:15.727Z,27.57
2018-04-01T06:44:45.572Z,27.27
2018-04-01T06:47:15.866Z,28.60
2018-04-01T06:49:45.825Z,28.43
2018-04-01T06:52:15.764Z,26.43
2018-04-01T06:54:46.369Z,27.63
2018-04-01T06:57:16.013Z,28.10
2018-04-01T06:59:45.992Z,28.80
2018-04-01T07:02:16.128Z,28.63
2018-04-01T07:04:46.053Z,27.73
2018-04-01T07:07:15.773Z,30.00
2018-04-01T07:09:46.364Z,30.70
2018-04-01T07:12:16.623Z,29.63
2018-04-01T07:14:46.389Z,28.27
2018-04-01T07:17:16.203Z,29.83
2018-04-01T07:19:47.088Z,31.17
2018-04-01T07:22:17.047Z,31.57
2018-04-01T07:24:47.252Z,32.07
2018-04-01T07:27:17.310Z,29.73
2018-04-01T07:29:47.067Z,32.50
2018-04-01T07:32:17.700Z,33.33
2018-04-01T07:34:47.476Z,29.48
2018-04-01T07:37:17.707Z,32.83
2018-04-01T07:39:47.922Z,29.43
2018-04-01T07:42:18.502Z,29.73
2018-04-01T07:44:49.384Z,30.10
2018-04-01T07:47:19.215Z,28.00
2018-04-01T07:49:50.226Z,28.70
2018-04-01T07:52:20.126Z,29.20
2018-04-01T07:54:50.777Z,30.03
2018-04-01T07:57:20.645Z,30.43
2018-04-01T07:59:50.577Z,28.87
2018-04-01T08:02:20.520Z,29.67
2018-04-01T08:04:50.439Z,28.25
2018-04-01T08:07:22.191Z,30.33
2018-04-01T08:09:51.985Z,31.80
2018-04-01T08:12:22.562Z,30.83
2018-04-01T08:14:53.581Z,30.30
2018-04-01T08:17:24.491Z,32.27
2018-04-01T08:19:54.654Z,32.50
2018-04-01T08:22:25.152Z,31.27
2018-04-01T08:24:55.158Z,30.90
2018-04-01T08:27:25.546Z,29.90
2018-04-01T08:29:55.704Z,31.13
2018-04-01T08:32:26.146Z,31.70
2018-04-01T08:34:55.976Z,34.87
2018-04-01T08:37:25.887Z,34.27
2018-04-01T08:39:56.318Z,32.17
2018-04-01T08:42:27.046Z,32.00
2018-04-01T08:44:56.873Z,31.43
2018-04-01T08:47:27.099Z,34.03
2018-04-01T08:49:58.066Z,35.77
2018-04-01T08:52:28.647Z,36.77
2018-04-01T08:54:59.609Z,37.97
2018-04-01T08:57:29.473Z,35.80
2018-04-01T08:59:59.236Z,35.83
2018-04-01T09:02:29.325Z,34.50
2018-04-01T09:04:59.338Z,34.53
2018-04-01T09:07:29.366Z,33.03
2018-04-01T09:09:59.165Z,36.00
2018-04-01T09:12:29.295Z,36.07
2018-04-01T09:14:58.966Z,37.27
2018-04-01T09:17:29.011Z,40.77
2018-04-01T09:19:59.157Z,38.80
2018-04-01T09:22:29.202Z,36.10
2018-04-01T09:24:59.188Z,41.20
2018-04-01T09:27:29.821Z,38.27
2018-04-01T09:30:00.008Z,35.73
2018-04-01T09:32:30.004Z,33.97
2018-04-01T09:35:00.685Z,35.30
2018-04-01T09:37:30.661Z,34.03
2018-04-01T09:40:00.911Z,28.47
2018-04-01T09:42:31.420Z,32.70
2018-04-01T09:45:01.395Z,32.70
2018-04-01T09:47:31.416Z,30.27
2018-04-01T09:50:01.405Z,29.87
2018-04-01T09:52:31.504Z,37.33
2018-04-01T09:55:01.365Z,35.30
2018-04-01T09:57:31.474Z,33.20
2018-04-01T10:00:01.981Z,29.37
2018-04-01T10:02:33.109Z,32.37
2018-04-01T10:05:18.886Z,31.30
2018-04-01T10:07:49.953Z,34.17
2018-04-01T10:10:21.534Z,34.17
2018-04-01T10:12:52.746Z,41.13
2018-04-01T10:15:23.606Z,30.73
2018-04-01T10:17:55.037Z,34.23
2018-04-01T10:20:26.008Z,35.23
2018-04-01T10:22:56.938Z,37.93
2018-04-01T10:25:27.969Z,34.90
2018-04-01T10:27:59.049Z,32.95
2018-04-01T10:30:29.875Z,35.17
2018-04-01T10:33:00.760Z,37.80
2018-04-01T10:35:31.828Z,33.80
2018-04-01T10:38:02.945Z,34.87
2018-04-01T10:40:34.713Z,32.20
2018-04-01T10:43:05.389Z,34.60
2018-04-01T10:45:36.591Z,31.17
2018-04-01T10:48:07.776Z,33.67
2018-04-01T10:50:39.029Z,34.60
2018-04-01T10:53:10.849Z,38.33
2018-04-01T10:55:41.503Z,37.67
2018-04-01T10:58:11.514Z,32.33
2018-04-01T11:00:41.482Z,31.40
2018-04-01T11:03:11.372Z,40.10
2018-04-01T11:05:42.111Z,33.13
2018-04-01T11:08:12.527Z,35.73
2018-04-01T11:10:43.341Z,36.23
2018-04-01T11:13:13.365Z,37.17
2018-04-01T11:15:44.001Z,39.80
2018-04-01T11:18:14.187Z,31.63
2018-04-01T11:20:43.980Z,33.83
2018-04-01T11:23:14.018Z,37.17
2018-04-01T11:25:44.885Z,36.53
2018-04-01T11:28:14.598Z,35.83
2018-04-01T11:30:45.404Z,37.33
2018-04-01T11:33:15.832Z,33.33
2018-04-01T11:35:46.399Z,35.63
2018-04-01T11:38:16.406Z,36.13
2018-04-01T11:40:46.622Z,35.43
2018-04-01T11:43:16.647Z,32.80
2018-04-01T11:45:47.420Z,36.00
2018-04-01T11:48:18.409Z,35.97
2018-04-01T11:50:48.272Z,35.65
2018-04-01T11:53:18.551Z,36.43
2018-04-01T11:55:48.370Z,39.60
2018-04-01T11:58:18.514Z,38.87
2018-04-01T12:00:49.603Z,38.67
2018-04-01T12:03:20.132Z,42.57
2018-04-01T12:05:50.191Z,36.60
2018-04-01T12:08:20.103Z,37.23
2018-04-01T12:10:50.088Z,34.73
2018-04-01T12:13:20.098Z,37.30
2018-04-01T12:15:50.009Z,36.97
2018-04-01T12:18:20.053Z,37.73
2018-04-01T12:20:50.044Z,37.33
2018-04-01T12:23:19.985Z,31.87
2018-04-01T12:25:50.582Z,32.17
2018-04-01T12:28:20.506Z,34.77
2018-04-01T12:30:50.379Z,33.07
2018-04-01T12:33:20.284Z,38.43
2018-04-01T12:35:50.262Z,34.20
2018-04-01T12:38:20.030Z,34.27
2018-04-01T12:40:50.886Z,39.00
2018-04-01T12:43:20.936Z,38.00
2018-04-01T12:45:50.961Z,41.70
2018-04-01T12:48:21.277Z,37.57
2018-04-01T12:50:51.405Z,33.07
2018-04-01T12:53:22.294Z,35.27
2018-04-01T12:55:52.158Z,31.23
2018-04-01T12:58:22.287Z,30.37
2018-04-01T13:00:52.340Z,34.43
2018-04-01T13:03:22.865Z,34.13
2018-04-01T13:05:52.693Z,29.80
2018-04-01T13:08:22.464Z,32.43
2018-04-01T13:10:52.473Z,30.60
2018-04-01T13:13:23.270Z,35.17
2018-04-01T13:15:53.690Z,31.07
2018-04-01T13:18:24.143Z,33.57
2018-04-01T13:20:54.672Z,32.28
2018-04-01T13:23:24.622Z,32.50
2018-04-01T13:25:54.890Z,34.13
2018-04-01T13:28:24.792Z,35.70
2018-04-01T13:30:54.826Z,29.37
2018-04-01T13:33:24.956Z,32.77
2018-04-01T13:35:54.906Z,35.17
2018-04-01T13:38:24.812Z,31.90
2018-04-01T13:40:55.518Z,35.40
2018-04-01T13:43:25.305Z,32.17
2018-04-01T13:45:55.043Z,34.10
2018-04-01T13:48:24.971Z,33.17
2018-04-01T13:50:55.285Z,36.43
2018-04-01T13:53:26.054Z,36.27
2018-04-01T13:55:55.819Z,37.25
2018-04-01T13:58:25.836Z,35.17
2018-04-01T14:00:55.617Z,34.97
2018-04-01T14:03:25.704Z,37.23
2018-04-01T14:05:55.666Z,34.00
2018-04-01T14:08:25.393Z,32.77
2018-04-01T14:10:55.405Z,33.77
2018-04-01T14:13:25.352Z,35.83
2018-04-01T14:15:55.600Z,33.37
2018-04-01T14:18:25.812Z,36.00
2018-04-01T14:20:56.743Z,37.23
2018-04-01T14:23:27.576Z,35.23
2018-04-01T14:25:58.192Z,33.47
2018-04-01T14:28:29.158Z,39.13
2018-04-01T14:30:58.922Z,38.30
2018-04-01T14:33:29.196Z,39.00
2018-04-01T14:35:59.510Z,35.07
2018-04-01T14:38:30.636Z,35.23
2018-04-01T14:41:00.357Z,32.60
2018-04-01T14:43:30.408Z,35.17
2018-04-01T14:46:00.472Z,34.63
2018-04-01T14:48:30.740Z,33.30
2018-04-01T14:51:00.698Z,35.67
2018-04-01T14:53:30.695Z,35.50
2018-04-01T14:56:00.678Z,37.47
2018-04-01T14:58:31.504Z,40.17
2018-04-01T15:01:01.293Z,34.53
2018-04-01T15:03:31.273Z,32.83
2018-04-01T15:06:01.198Z,31.17
2018-04-01T15:08:31.046Z,35.60
2018-04-01T15:11:01.181Z,30.77
2018-04-01T15:13:32.212Z,34.13
2018-04-01T15:16:02.346Z,31.37
2018-04-01T15:18:33.065Z,32.27
2018-04-01T15:21:04.003Z,33.40
2018-04-01T15:23:33.956Z,35.73
2018-04-01T15:26:04.377Z,31.13
2018-04-01T15:28:35.361Z,33.77
2018-04-01T15:31:05.610Z,30.50
2018-04-01T15:33:35.859Z,33.80
2018-04-01T15:36:06.184Z,33.60
2018-04-01T15:38:37.139Z,32.07
2018-04-01T15:41:06.964Z,31.37
2018-04-01T15:43:36.971Z,29.57
2018-04-01T15:46:06.792Z,30.27
2018-04-01T15:48:36.930Z,29.00
2018-04-01T15:51:06.658Z,32.03
2018-04-01T15:53:36.472Z,29.10
2018-04-01T15:56:06.408Z,30.07
2018-04-01T15:58:37.025Z,30.40
2018-04-01T16:01:06.904Z,28.80
2018-04-01T16:03:36.797Z,29.17
2018-04-01T16:06:06.657Z,30.00
2018-04-01T16:08:36.459Z,29.07
2018-04-01T16:11:06.472Z,29.07
2018-04-01T16:13:36.352Z,26.33
2018-04-01T16:16:07.325Z,27.07
2018-04-01T16:18:38.284Z,26.50
2018-04-01T16:21:09.638Z,25.57
2018-04-01T16:23:39.533Z,26.47
2018-04-01T16:26:09.467Z,25.23
2018-04-01T16:28:39.291Z,25.07
2018-04-01T16:31:09.044Z,26.27
2018-04-01T16:33:38.927Z,25.63
2018-04-01T16:36:08.855Z,27.33
2018-04-01T16:38:38.882Z,25.37
2018-04-01T16:41:08.918Z,25.33
2018-04-01T16:43:38.784Z,22.62
2018-04-01T16:46:08.659Z,23.63
2018-04-01T16:48:38.440Z,21.90
2018-04-01T16:51:08.560Z,24.70
2018-04-01T16:53:38.609Z,25.20
2018-04-01T16:56:08.647Z,21.90
2018-04-01T16:58:39.152Z,23.00
2018-04-01T17:01:09.634Z,22.10
2018-04-01T17:06:35.215Z,35.97
2018-04-01T17:09:05.053Z,40.90
2018-04-01T17:11:34.932Z,32.80
2018-04-01T17:14:04.809Z,29.27
2018-04-01T17:16:34.450Z,22.50
2018-04-01T17:19:04.584Z,25.40
2018-04-01T17:21:34.836Z,31.80
2018-04-01T17:24:05.546Z,19.53
2018-04-01T17:26:35.758Z,21.77
2018-04-01T17:29:05.893Z,16.97
2018-04-01T17:31:36.851Z,18.73
2018-04-01T17:34:07.891Z,20.40
2018-04-01T17:36:38.541Z,18.63
2018-04-01T17:39:09.573Z,19.90
2018-04-01T17:41:40.095Z,17.57
2018-04-01T17:44:10.659Z,16.97
2018-04-01T17:46:40.446Z,17.97
2018-04-01T17:49:10.586Z,20.33
2018-04-01T17:51:40.778Z,22.73
2018-04-01T17:54:10.758Z,17.90
2018-04-01T17:56:40.682Z,16.33
2018-04-01T17:59:10.580Z,20.80
2018-04-01T18:01:40.362Z,15.13
2018-04-01T18:04:10.510Z,13.77
2018-04-01T18:06:40.693Z,13.43
2018-04-01T18:09:10.990Z,15.30
2018-04-01T18:11:41.737Z,13.73
2018-04-01T18:14:11.805Z,14.43
2018-04-01T18:16:41.735Z,13.33
2018-04-01T18:19:12.076Z,14.40
2018-04-01T18:21:41.901Z,12.57
2018-04-01T18:24:11.790Z,12.07
2018-04-01T18:26:41.690Z,16.27
2018-04-01T18:29:11.345Z,13.27
2018-04-01T18:31:41.290Z,12.80
2018-04-01T18:34:11.390Z,11.50
2018-04-01T18:36:41.389Z,13.97
2018-04-01T18:39:11.033Z,10.87
2018-04-01T18:41:40.900Z,15.77
2018-04-01T18:44:11.817Z,12.57
2018-04-01T18:46:41.798Z,10.43
2018-04-01T18:49:11.788Z,10.87
2018-04-01T18:51:41.881Z,11.90
2018-04-01T18:54:11.743Z,11.07
2018-04-01T18:56:41.962Z,10.93
2018-04-01T18:59:12.198Z,12.40
2018-04-01T19:01:42.752Z,10.60
2018-04-01T19:04:12.795Z,10.20
2018-04-01T19:06:42.669Z,9.97
2018-04-01T19:09:12.666Z,9.53
2018-04-01T19:11:42.410Z,9.93
2018-04-01T19:14:12.283Z,10.00
2018-04-01T19:17:09.509Z,10.00
2018-04-01T19:19:40.114Z,8.63
2018-04-01T19:22:11.391Z,7.70
2018-04-01T19:24:42.556Z,9.07
2018-04-01T19:27:13.739Z,7.33
2018-04-01T19:29:44.927Z,6.60
2018-04-01T19:32:16.411Z,8.17
2018-04-01T19:34:47.830Z,6.83
2018-04-01T19:37:18.655Z,8.17
2018-04-01T19:39:49.553Z,7.47
2018-04-01T19:42:20.730Z,7.63
2018-04-01T19:44:51.545Z,9.23
2018-04-01T19:47:22.379Z,7.07
2018-04-01T19:49:52.929Z,6.97
2018-04-01T19:52:23.527Z,6.57
2018-04-01T19:54:54.337Z,6.40
2018-04-01T19:57:25.168Z,6.90
2018-04-01T19:59:55.954Z,7.87
2018-04-01T20:02:26.816Z,5.33
2018-04-01T20:04:57.651Z,8.27
2018-04-01T20:07:28.334Z,5.37
2018-04-01T20:09:59.233Z,7.37
2018-04-01T20:12:30.094Z,6.23
2018-04-01T20:15:00.843Z,4.80
2018-04-01T20:17:32.530Z,6.23
2018-04-01T20:20:02.989Z,5.93
2018-04-01T20:22:33.861Z,4.57
2018-04-01T20:25:04.909Z,5.90
2018-04-01T20:27:35.640Z,5.23
2018-04-01T20:30:07.010Z,5.03
2018-04-01T20:32:38.008Z,6.03
2018-04-01T20:35:08.823Z,5.57
2018-04-01T20:37:39.795Z,5.83
2018-04-01T20:40:11.789Z,5.73
2018-04-01T20:42:43.070Z,5.97
2018-04-01T20:45:15.400Z,7.87
2018-04-01T20:47:47.141Z,6.53
2018-04-01T20:50:17.911Z,5.27
2018-04-01T20:52:48.932Z,7.53
2018-04-01T20:55:19.672Z,5.70
2018-04-01T20:57:50.835Z,4.53
2018-04-01T21:00:21.652Z,4.30
2018-04-01T21:02:52.560Z,4.97
2018-04-01T21:05:23.070Z,4.80
2018-04-01T21:07:53.907Z,5.33
2018-04-01T21:10:25.364Z,4.90
2018-04-01T21:12:56.229Z,5.70
2018-04-01T21:15:27.530Z,7.23
2018-04-01T21:17:58.169Z,5.47
2018-04-01T21:20:28.939Z,7.10
2018-04-01T21:23:01.916Z,6.53
2018-04-01T21:25:32.486Z,7.93
2018-04-01T21:28:03.059Z,5.57
2018-04-01T21:30:34.099Z,5.10
2018-04-01T21:33:04.935Z,7.77
2018-04-01T21:35:36.587Z,4.93
2018-04-01T21:38:08.220Z,6.70
2018-04-01T21:40:39.266Z,5.83
2018-04-01T21:43:12.118Z,6.00
2018-04-01T21:45:49.303Z,5.13
2018-04-01T21:48:20.037Z,7.07
2018-04-01T21:50:51.049Z,7.03
2018-04-01T21:53:21.687Z,5.87
2018-04-01T21:55:52.284Z,5.27
2018-04-01T21:58:24.603Z,4.93
2018-04-01T22:00:55.160Z,6.10
2018-04-01T22:03:25.756Z,7.20
2018-04-01T22:05:56.407Z,9.40
2018-04-01T22:08:27.122Z,5.93
2018-04-01T22:10:58.534Z,6.13
2018-04-01T22:13:29.320Z,8.90
2018-04-01T22:16:00.049Z,13.43
2018-04-01T22:18:30.760Z,8.47
2018-04-01T22:21:01.431Z,5.80
2018-04-01T22:23:32.075Z,7.43
2018-04-01T22:26:03.618Z,5.63
2018-04-01T22:28:34.435Z,6.87
2018-04-01T22:31:06.237Z,5.77
2018-04-01T22:33:37.688Z,7.43
2018-04-01T22:36:08.657Z,6.30
2018-04-01T22:38:39.386Z,7.30
2018-04-01T22:41:11.028Z,8.40
2018-04-01T22:43:43.162Z,6.30
2018-04-01T22:46:13.972Z,7.23
2018-04-01T22:48:45.057Z,8.67
2018-04-01T22:51:15.921Z,6.10
2018-04-01T22:53:46.931Z,6.17
2018-04-01T22:56:17.459Z,8.17
2018-04-01T22:58:47.991Z,7.50
2018-04-01T23:01:18.646Z,8.13
2018-04-01T23:03:50.222Z,6.43
2018-04-01T23:06:21.824Z,7.10
2018-04-01T23:08:52.927Z,11.47
2018-04-01T23:11:24.808Z,13.27
2018-04-01T23:13:55.637Z,9.57
2018-04-01T23:16:27.182Z,7.13
2018-04-01T23:18:58.731Z,6.10
2018-04-01T23:21:30.382Z,7.13
2018-04-01T23:24:01.622Z,10.00
2018-04-01T23:26:32.526Z,9.10
2018-04-01T23:29:04.189Z,6.37
2018-04-01T23:31:35.968Z,8.33
2018-04-01T23:34:06.688Z,4.97
2018-04-01T23:36:38.141Z,9.47
2018-04-01T23:39:09.111Z,8.00
2018-04-01T23:41:40.679Z,6.00
2018-04-01T23:44:12.843Z,7.50
2018-04-01T23:46:43.936Z,7.17
2018-04-01T23:49:15.175Z,6.90
2018-04-01T23:51:46.666Z,5.47
2018-04-01T23:54:17.519Z,6.77
2018-04-01T23:56:48.329Z,7.73
2018-04-01T23:59:19.491Z,8.67
